sensor_id;sensor_type;location;lat;lon;timestamp;pressure;altitude;pressure_sealevel;temperature;humidity
54459;BME280;40368;49.350;8.152;2022-10-17T00:00:10;1006;;;18.91;67.32
54459;BME280;40368;49.350;8.152;2022-10-17T00:01:10;1006;;;18.94;67.14
54459;BME280;40368;49.350;8.152;2022-10-17T00:02:10;1006;;;18.98;67.07
54459;BME280;40368;49.350;8.152;2022-10-17T00:03:10;1006;;;18.96;66.68
54459;BME280;40368;49.350;8.152;2022-10-17T00:04:10;1006;;;18.98;67.02
54459;BME280;40368;49.350;8.152;2022-10-17T00:05:10;1006;;;18.99;66.9
54459;BME280;40368;49.350;8.152;2022-10-17T00:06:11;1006;;;18.96;66.67
54459;BME280;40368;49.350;8.152;2022-10-17T00:07:10;1006;;;18.95;67.01
54459;BME280;40368;49.350;8.152;2022-10-17T00:08:10;1006;;;18.98;66.98
54459;BME280;40368;49.350;8.152;2022-10-17T00:09:10;1006.1;;;18.99;66.98
54459;BME280;40368;49.350;8.152;2022-10-17T00:10:10;1006;;;18.95;67.09
54459;BME280;40368;49.350;8.152;2022-10-17T00:11:12;1006;;;18.95;66.99
54459;BME280;40368;49.350;8.152;2022-10-17T00:12:10;1006.1;;;18.99;66.84
54459;BME280;40368;49.350;8.152;2022-10-17T00:13:10;1006.1;;;19;66.91
54459;BME280;40368;49.350;8.152;2022-10-17T00:14:10;1006.1;;;19;66.6
54459;BME280;40368;49.350;8.152;2022-10-17T00:15:13;1006.1;;;18.99;66.84
54459;BME280;40368;49.350;8.152;2022-10-17T00:16:11;1006.1;;;18.99;67.06
54459;BME280;40368;49.350;8.152;2022-10-17T00:17:10;1006.1;;;18.99;66.69
54459;BME280;40368;49.350;8.152;2022-10-17T00:18:10;1006.1;;;18.95;66.42
54459;BME280;40368;49.350;8.152;2022-10-17T00:19:10;1006.1;;;18.95;66.6
54459;BME280;40368;49.350;8.152;2022-10-17T00:20:10;1006.2;;;18.94;66.66
54459;BME280;40368;49.350;8.152;2022-10-17T00:21:14;1006.2;;;18.95;66.93
54459;BME280;40368;49.350;8.152;2022-10-17T00:22:11;1006.2;;;18.94;66.26
54459;BME280;40368;49.350;8.152;2022-10-17T00:23:10;1006.2;;;18.89;66.96
54459;BME280;40368;49.350;8.152;2022-10-17T00:24:10;1006.2;;;18.89;66.53
54459;BME280;40368;49.350;8.152;2022-10-17T00:25:10;1006.2;;;18.87;66.78
54459;BME280;40368;49.350;8.152;2022-10-17T00:26:10;1006.3;;;18.91;66.95
54459;BME280;40368;49.350;8.152;2022-10-17T00:27:10;1006.3;;;18.93;66.84
54459;BME280;40368;49.350;8.152;2022-10-17T00:28:10;1006.3;;;18.94;66.6
54459;BME280;40368;49.350;8.152;2022-10-17T00:29:10;1006.3;;;18.95;66.68
54459;BME280;40368;49.350;8.152;2022-10-17T00:30:11;1006.3;;;18.98;66.46
54459;BME280;40368;49.350;8.152;2022-10-17T00:31:10;1006.3;;;18.99;66.38
54459;BME280;40368;49.350;8.152;2022-10-17T00:32:10;1006.3;;;19;66.28
54459;BME280;40368;49.350;8.152;2022-10-17T00:33:10;1006.3;;;18.99;66.13
54459;BME280;40368;49.350;8.152;2022-10-17T00:34:10;1006.3;;;19;66.08
54459;BME280;40368;49.350;8.152;2022-10-17T00:35:10;1006.4;;;18.99;65.97
54459;BME280;40368;49.350;8.152;2022-10-17T00:36:11;1006.3;;;18.98;65.86
54459;BME280;40368;49.350;8.152;2022-10-17T00:37:10;1006.4;;;18.96;65.47
54459;BME280;40368;49.350;8.152;2022-10-17T00:38:10;1006.4;;;18.94;65.64
54459;BME280;40368;49.350;8.152;2022-10-17T00:39:10;1006.3;;;18.94;65.91
54459;BME280;40368;49.350;8.152;2022-10-17T00:40:10;1006.4;;;18.95;65.98
54459;BME280;40368;49.350;8.152;2022-10-17T00:41:11;1006.3;;;18.95;65.17
54459;BME280;40368;49.350;8.152;2022-10-17T00:42:11;1006.3;;;18.93;65.9
54459;BME280;40368;49.350;8.152;2022-10-17T00:43:12;1006.4;;;18.93;65.67
54459;BME280;40368;49.350;8.152;2022-10-17T00:44:56;1006.4;;;18.92;65.93
54459;BME280;40368;49.350;8.152;2022-10-17T00:45:13;1006.4;;;18.94;66.11
54459;BME280;40368;49.350;8.152;2022-10-17T00:46:10;1006.3;;;18.95;65.73
54459;BME280;40368;49.350;8.152;2022-10-17T00:47:10;1006.3;;;18.95;65.79
54459;BME280;40368;49.350;8.152;2022-10-17T00:48:10;1006.3;;;18.95;65.88
54459;BME280;40368;49.350;8.152;2022-10-17T00:49:10;1006.4;;;18.95;65.54
54459;BME280;40368;49.350;8.152;2022-10-17T00:50:10;1006.3;;;18.94;65.51
54459;BME280;40368;49.350;8.152;2022-10-17T00:51:10;1006.3;;;18.9;65.65
54459;BME280;40368;49.350;8.152;2022-10-17T00:52:11;1006.3;;;18.9;65.78
54459;BME280;40368;49.350;8.152;2022-10-17T00:53:10;1006.4;;;18.92;65.76
54459;BME280;40368;49.350;8.152;2022-10-17T00:54:10;1006.4;;;18.92;65.52
54459;BME280;40368;49.350;8.152;2022-10-17T00:55:13;1006.4;;;18.93;65.5
54459;BME280;40368;49.350;8.152;2022-10-17T00:56:10;1006.3;;;18.91;65.31
54459;BME280;40368;49.350;8.152;2022-10-17T00:57:10;1006.4;;;18.89;65.13
54459;BME280;40368;49.350;8.152;2022-10-17T00:58:10;1006.4;;;18.87;65.14
54459;BME280;40368;49.350;8.152;2022-10-17T00:59:10;1006.4;;;18.85;65.32
54459;BME280;40368;49.350;8.152;2022-10-17T01:00:10;1006.4;;;18.86;65.34
54459;BME280;40368;49.350;8.152;2022-10-17T01:01:10;1006.4;;;18.86;65.37
54459;BME280;40368;49.350;8.152;2022-10-17T01:02:11;1006.4;;;18.87;65.55
54459;BME280;40368;49.350;8.152;2022-10-17T01:03:10;1006.3;;;18.87;65.43
54459;BME280;40368;49.350;8.152;2022-10-17T01:04:10;1006.3;;;18.87;65.49
54459;BME280;40368;49.350;8.152;2022-10-17T01:05:10;1006.4;;;18.87;65.37
54459;BME280;40368;49.350;8.152;2022-10-17T01:08:10;1006.4;;;18.87;65.53
54459;BME280;40368;49.350;8.152;2022-10-17T01:09:20;1006.4;;;18.89;65.46
54459;BME280;40368;49.350;8.152;2022-10-17T01:10:21;1006.4;;;18.86;65.44
54459;BME280;40368;49.350;8.152;2022-10-17T01:11:23;1006.4;;;18.85;65.48
54459;BME280;40368;49.350;8.152;2022-10-17T01:12:21;1006.4;;;18.84;65.45
54459;BME280;40368;49.350;8.152;2022-10-17T01:13:32;1006.4;;;18.85;65.56
54459;BME280;40368;49.350;8.152;2022-10-17T01:14:35;1006.4;;;18.85;65.58
54459;BME280;40368;49.350;8.152;2022-10-17T01:15:28;1006.4;;;18.84;65.35
54459;BME280;40368;49.350;8.152;2022-10-17T01:16:23;1006.4;;;18.86;65.52
54459;BME280;40368;49.350;8.152;2022-10-17T01:17:22;1006.4;;;18.87;65.45
54459;BME280;40368;49.350;8.152;2022-10-17T01:18:12;1006.4;;;18.87;65.41
54459;BME280;40368;49.350;8.152;2022-10-17T01:19:17;1006.4;;;18.87;65.37
54459;BME280;40368;49.350;8.152;2022-10-17T01:20:17;1006.4;;;18.85;65.33
54459;BME280;40368;49.350;8.152;2022-10-17T01:21:44;1006.3;;;18.81;65.62
54459;BME280;40368;49.350;8.152;2022-10-17T01:22:21;1006.4;;;18.79;65.68
54459;BME280;40368;49.350;8.152;2022-10-17T01:23:26;1006.3;;;18.78;65.71
54459;BME280;40368;49.350;8.152;2022-10-17T01:24:27;1006.3;;;18.77;65.78
54459;BME280;40368;49.350;8.152;2022-10-17T01:25:15;1006.4;;;18.77;65.8
54459;BME280;40368;49.350;8.152;2022-10-17T01:26:13;1006.3;;;18.79;65.86
54459;BME280;40368;49.350;8.152;2022-10-17T01:27:16;1006.4;;;18.79;65.75
54459;BME280;40368;49.350;8.152;2022-10-17T01:28:14;1006.4;;;18.79;65.74
54459;BME280;40368;49.350;8.152;2022-10-17T01:29:16;1006.4;;;18.79;65.82
54459;BME280;40368;49.350;8.152;2022-10-17T01:30:16;1006.4;;;18.79;65.83
54459;BME280;40368;49.350;8.152;2022-10-17T01:31:11;1006.4;;;18.79;65.82
54459;BME280;40368;49.350;8.152;2022-10-17T01:32:11;1006.4;;;18.79;65.59
54459;BME280;40368;49.350;8.152;2022-10-17T01:33:11;1006.4;;;18.81;65.67
54459;BME280;40368;49.350;8.152;2022-10-17T01:34:12;1006.4;;;18.79;65.76
54459;BME280;40368;49.350;8.152;2022-10-17T01:35:11;1006.4;;;18.79;65.5
54459;BME280;40368;49.350;8.152;2022-10-17T01:36:10;1006.3;;;18.78;65.52
54459;BME280;40368;49.350;8.152;2022-10-17T01:37:12;1006.3;;;18.75;65.79
54459;BME280;40368;49.350;8.152;2022-10-17T01:38:11;1006.3;;;18.74;65.59
54459;BME280;40368;49.350;8.152;2022-10-17T01:39:13;1006.3;;;18.7;65.59
54459;BME280;40368;49.350;8.152;2022-10-17T01:40:12;1006.3;;;18.7;65.69
54459;BME280;40368;49.350;8.152;2022-10-17T01:41:12;1006.3;;;18.68;65.69
54459;BME280;40368;49.350;8.152;2022-10-17T01:42:11;1006.3;;;18.66;65.84
54459;BME280;40368;49.350;8.152;2022-10-17T01:43:12;1006.3;;;18.66;65.76
54459;BME280;40368;49.350;8.152;2022-10-17T01:44:11;1006.3;;;18.67;65.87
54459;BME280;40368;49.350;8.152;2022-10-17T01:45:11;1006.3;;;18.66;65.67
54459;BME280;40368;49.350;8.152;2022-10-17T01:46:11;1006.4;;;18.66;65.9
54459;BME280;40368;49.350;8.152;2022-10-17T01:47:12;1006.3;;;18.67;65.64
54459;BME280;40368;49.350;8.152;2022-10-17T01:48:12;1006.3;;;18.66;65.65
54459;BME280;40368;49.350;8.152;2022-10-17T01:49:10;1006.3;;;18.65;65.6
54459;BME280;40368;49.350;8.152;2022-10-17T01:50:11;1006.3;;;18.65;65.71
54459;BME280;40368;49.350;8.152;2022-10-17T01:51:12;1006.3;;;18.67;65.78
54459;BME280;40368;49.350;8.152;2022-10-17T01:52:11;1006.3;;;18.68;65.7
54459;BME280;40368;49.350;8.152;2022-10-17T01:53:11;1006.3;;;18.68;65.53
54459;BME280;40368;49.350;8.152;2022-10-17T01:54:10;1006.3;;;18.67;65.62
54459;BME280;40368;49.350;8.152;2022-10-17T01:55:11;1006.3;;;18.67;65.74
54459;BME280;40368;49.350;8.152;2022-10-17T01:56:10;1006.3;;;18.68;65.63
54459;BME280;40368;49.350;8.152;2022-10-17T01:57:11;1006.4;;;18.66;65.4
54459;BME280;40368;49.350;8.152;2022-10-17T01:58:11;1006.4;;;18.64;65.6
54459;BME280;40368;49.350;8.152;2022-10-17T01:59:11;1006.4;;;18.62;65.67
54459;BME280;40368;49.350;8.152;2022-10-17T02:00:12;1006.4;;;18.62;65.73
54459;BME280;40368;49.350;8.152;2022-10-17T02:01:10;1006.3;;;18.61;65.67
54459;BME280;40368;49.350;8.152;2022-10-17T02:02:10;1006.3;;;18.62;65.76
54459;BME280;40368;49.350;8.152;2022-10-17T02:03:11;1006.3;;;18.62;65.6
54459;BME280;40368;49.350;8.152;2022-10-17T02:04:10;1006.4;;;18.57;65.81
54459;BME280;40368;49.350;8.152;2022-10-17T02:05:10;1006.4;;;18.54;65.86
54459;BME280;40368;49.350;8.152;2022-10-17T02:06:10;1006.3;;;18.56;65.86
54459;BME280;40368;49.350;8.152;2022-10-17T02:07:11;1006.3;;;18.57;65.85
54459;BME280;40368;49.350;8.152;2022-10-17T02:08:10;1006.4;;;18.57;65.6
54459;BME280;40368;49.350;8.152;2022-10-17T02:09:15;1006.4;;;18.57;65.8
54459;BME280;40368;49.350;8.152;2022-10-17T02:10:11;1006.3;;;18.59;65.63
54459;BME280;40368;49.350;8.152;2022-10-17T02:11:12;1006.3;;;18.59;65.55
54459;BME280;40368;49.350;8.152;2022-10-17T02:12:23;1006.3;;;18.57;65.77
54459;BME280;40368;49.350;8.152;2022-10-17T02:13:12;1006.3;;;18.56;65.46
54459;BME280;40368;49.350;8.152;2022-10-17T02:14:12;1006.4;;;18.54;65.92
54459;BME280;40368;49.350;8.152;2022-10-17T02:15:18;1006.3;;;18.52;65.52
54459;BME280;40368;49.350;8.152;2022-10-17T02:16:14;1006.4;;;18.52;65.89
54459;BME280;40368;49.350;8.152;2022-10-17T02:17:12;1006.4;;;18.53;65.8
54459;BME280;40368;49.350;8.152;2022-10-17T02:18:15;1006.3;;;18.52;65.66
54459;BME280;40368;49.350;8.152;2022-10-17T02:19:14;1006.3;;;18.53;65.71
54459;BME280;40368;49.350;8.152;2022-10-17T02:20:14;1006.3;;;18.54;65.7
54459;BME280;40368;49.350;8.152;2022-10-17T02:21:12;1006.3;;;18.54;65.53
54459;BME280;40368;49.350;8.152;2022-10-17T02:22:14;1006.3;;;18.52;65.36
54459;BME280;40368;49.350;8.152;2022-10-17T02:23:10;1006.3;;;18.49;65.66
54459;BME280;40368;49.350;8.152;2022-10-17T02:24:12;1006.3;;;18.5;65.69
54459;BME280;40368;49.350;8.152;2022-10-17T02:25:11;1006.3;;;18.51;65.58
54459;BME280;40368;49.350;8.152;2022-10-17T02:26:10;1006.2;;;18.49;65.35
54459;BME280;40368;49.350;8.152;2022-10-17T02:27:11;1006.3;;;18.48;65.65
54459;BME280;40368;49.350;8.152;2022-10-17T02:28:14;1006.3;;;18.48;65.66
54459;BME280;40368;49.350;8.152;2022-10-17T02:29:12;1006.2;;;18.45;65.56
54459;BME280;40368;49.350;8.152;2022-10-17T02:30:11;1006.3;;;18.44;65.6
54459;BME280;40368;49.350;8.152;2022-10-17T02:31:12;1006.2;;;18.43;65.45
54459;BME280;40368;49.350;8.152;2022-10-17T02:32:11;1006.2;;;18.41;65.76
54459;BME280;40368;49.350;8.152;2022-10-17T02:33:11;1006.2;;;18.41;65.73
54459;BME280;40368;49.350;8.152;2022-10-17T02:34:11;1006.2;;;18.39;65.62
54459;BME280;40368;49.350;8.152;2022-10-17T02:35:11;1006.2;;;18.37;65.44
54459;BME280;40368;49.350;8.152;2022-10-17T02:36:11;1006.2;;;18.36;65.78
54459;BME280;40368;49.350;8.152;2022-10-17T02:37:10;1006.2;;;18.37;65.68
54459;BME280;40368;49.350;8.152;2022-10-17T02:38:10;1006.3;;;18.37;65.45
54459;BME280;40368;49.350;8.152;2022-10-17T02:39:10;1006.2;;;18.37;65.61
54459;BME280;40368;49.350;8.152;2022-10-17T02:40:10;1006.2;;;18.37;65.71
54459;BME280;40368;49.350;8.152;2022-10-17T02:41:11;1006.3;;;18.36;65.6
54459;BME280;40368;49.350;8.152;2022-10-17T02:42:10;1006.2;;;18.35;65.48
54459;BME280;40368;49.350;8.152;2022-10-17T02:44:10;1006.3;;;18.35;65.62
54459;BME280;40368;49.350;8.152;2022-10-17T02:45:10;1006.2;;;18.34;65.54
54459;BME280;40368;49.350;8.152;2022-10-17T02:46:10;1006.2;;;18.37;65.52
54459;BME280;40368;49.350;8.152;2022-10-17T02:47:11;1006.2;;;18.35;65.59
54459;BME280;40368;49.350;8.152;2022-10-17T02:48:11;1006.2;;;18.36;65.52
54459;BME280;40368;49.350;8.152;2022-10-17T02:49:11;1006.2;;;18.37;65.47
54459;BME280;40368;49.350;8.152;2022-10-17T02:50:10;1006.2;;;18.37;65.35
54459;BME280;40368;49.350;8.152;2022-10-17T02:51:11;1006.2;;;18.37;65.3
54459;BME280;40368;49.350;8.152;2022-10-17T02:52:11;1006.2;;;18.35;65.38
54459;BME280;40368;49.350;8.152;2022-10-17T02:53:11;1006.3;;;18.31;65.46
54459;BME280;40368;49.350;8.152;2022-10-17T02:54:11;1006.3;;;18.28;65.57
54459;BME280;40368;49.350;8.152;2022-10-17T02:55:11;1006.3;;;18.28;65.75
54459;BME280;40368;49.350;8.152;2022-10-17T02:56:13;1006.2;;;18.29;65.81
54459;BME280;40368;49.350;8.152;2022-10-17T02:57:11;1006.2;;;18.29;65.17
54459;BME280;40368;49.350;8.152;2022-10-17T02:58:10;1006.2;;;18.26;65.6
54459;BME280;40368;49.350;8.152;2022-10-17T02:59:11;1006.2;;;18.28;65.64
54459;BME280;40368;49.350;8.152;2022-10-17T03:00:11;1006.3;;;18.28;65.73
54459;BME280;40368;49.350;8.152;2022-10-17T03:01:10;1006.3;;;18.28;65.8
54459;BME280;40368;49.350;8.152;2022-10-17T03:02:11;1006.3;;;18.27;65.74
54459;BME280;40368;49.350;8.152;2022-10-17T03:03:18;1006.3;;;18.28;65.5
54459;BME280;40368;49.350;8.152;2022-10-17T03:04:11;1006.2;;;18.29;65.64
54459;BME280;40368;49.350;8.152;2022-10-17T03:05:11;1006.3;;;18.31;65.68
54459;BME280;40368;49.350;8.152;2022-10-17T03:06:10;1006.3;;;18.32;65.64
54459;BME280;40368;49.350;8.152;2022-10-17T03:07:10;1006.3;;;18.35;65.39
54459;BME280;40368;49.350;8.152;2022-10-17T03:08:10;1006.3;;;18.32;65.56
54459;BME280;40368;49.350;8.152;2022-10-17T03:09:10;1006.3;;;18.29;65.51
54459;BME280;40368;49.350;8.152;2022-10-17T03:10:10;1006.3;;;18.31;65.49
54459;BME280;40368;49.350;8.152;2022-10-17T03:11:10;1006.4;;;18.31;65.18
54459;BME280;40368;49.350;8.152;2022-10-17T03:12:10;1006.4;;;18.29;65.56
54459;BME280;40368;49.350;8.152;2022-10-17T03:13:10;1006.5;;;18.29;65.56
54459;BME280;40368;49.350;8.152;2022-10-17T03:14:10;1006.4;;;18.29;65.66
54459;BME280;40368;49.350;8.152;2022-10-17T03:15:10;1006.4;;;18.31;65.51
54459;BME280;40368;49.350;8.152;2022-10-17T03:16:10;1006.4;;;18.32;65.45
54459;BME280;40368;49.350;8.152;2022-10-17T03:17:10;1006.5;;;18.33;65.48
54459;BME280;40368;49.350;8.152;2022-10-17T03:18:10;1006.5;;;18.33;65.44
54459;BME280;40368;49.350;8.152;2022-10-17T03:19:10;1006.6;;;18.33;65.43
54459;BME280;40368;49.350;8.152;2022-10-17T03:20:10;1006.5;;;18.33;65.48
54459;BME280;40368;49.350;8.152;2022-10-17T03:21:11;1006.5;;;18.33;65.56
54459;BME280;40368;49.350;8.152;2022-10-17T03:22:10;1006.6;;;18.34;65.45
54459;BME280;40368;49.350;8.152;2022-10-17T03:23:10;1006.5;;;18.33;65.22
54459;BME280;40368;49.350;8.152;2022-10-17T03:24:10;1006.5;;;18.33;65.36
54459;BME280;40368;49.350;8.152;2022-10-17T03:25:10;1006.5;;;18.33;65.26
54459;BME280;40368;49.350;8.152;2022-10-17T03:26:10;1006.5;;;18.33;65.09
54459;BME280;40368;49.350;8.152;2022-10-17T03:27:10;1006.5;;;18.33;65.15
54459;BME280;40368;49.350;8.152;2022-10-17T03:28:10;1006.5;;;18.33;65.18
54459;BME280;40368;49.350;8.152;2022-10-17T03:29:10;1006.5;;;18.33;65.15
54459;BME280;40368;49.350;8.152;2022-10-17T03:30:10;1006.5;;;18.32;65.01
54459;BME280;40368;49.350;8.152;2022-10-17T03:31:12;1006.5;;;18.32;65.09
54459;BME280;40368;49.350;8.152;2022-10-17T03:32:10;1006.6;;;18.34;65.18
54459;BME280;40368;49.350;8.152;2022-10-17T03:33:10;1006.6;;;18.34;64.9
54459;BME280;40368;49.350;8.152;2022-10-17T03:34:10;1006.6;;;18.32;65.02
54459;BME280;40368;49.350;8.152;2022-10-17T03:35:10;1006.6;;;18.33;64.96
54459;BME280;40368;49.350;8.152;2022-10-17T03:36:12;1006.7;;;18.33;64.88
54459;BME280;40368;49.350;8.152;2022-10-17T03:37:10;1006.7;;;18.32;64.88
54459;BME280;40368;49.350;8.152;2022-10-17T03:38:11;1006.7;;;18.32;64.97
54459;BME280;40368;49.350;8.152;2022-10-17T03:39:10;1006.7;;;18.33;64.95
54459;BME280;40368;49.350;8.152;2022-10-17T03:40:10;1006.7;;;18.33;64.88
54459;BME280;40368;49.350;8.152;2022-10-17T03:41:10;1006.7;;;18.32;64.96
54459;BME280;40368;49.350;8.152;2022-10-17T03:42:10;1006.7;;;18.31;64.91
54459;BME280;40368;49.350;8.152;2022-10-17T03:43:10;1006.7;;;18.32;64.91
54459;BME280;40368;49.350;8.152;2022-10-17T03:44:10;1006.8;;;18.31;64.85
54459;BME280;40368;49.350;8.152;2022-10-17T03:45:10;1006.7;;;18.29;64.77
54459;BME280;40368;49.350;8.152;2022-10-17T03:46:10;1006.7;;;18.28;64.77
54459;BME280;40368;49.350;8.152;2022-10-17T03:47:10;1006.8;;;18.24;65.08
54459;BME280;40368;49.350;8.152;2022-10-17T03:48:10;1006.7;;;18.24;64.82
54459;BME280;40368;49.350;8.152;2022-10-17T03:49:10;1006.7;;;18.26;64.9
54459;BME280;40368;49.350;8.152;2022-10-17T03:50:10;1006.8;;;18.25;64.91
54459;BME280;40368;49.350;8.152;2022-10-17T03:51:10;1006.8;;;18.24;64.63
54459;BME280;40368;49.350;8.152;2022-10-17T03:52:10;1006.8;;;18.2;64.96
54459;BME280;40368;49.350;8.152;2022-10-17T03:53:10;1006.7;;;18.2;65.07
54459;BME280;40368;49.350;8.152;2022-10-17T03:54:10;1006.7;;;18.2;65.06
54459;BME280;40368;49.350;8.152;2022-10-17T03:55:10;1006.8;;;18.2;64.72
54459;BME280;40368;49.350;8.152;2022-10-17T03:56:11;1006.8;;;18.19;64.88
54459;BME280;40368;49.350;8.152;2022-10-17T03:57:10;1006.8;;;18.18;64.78
54459;BME280;40368;49.350;8.152;2022-10-17T03:58:10;1006.8;;;18.17;64.99
54459;BME280;40368;49.350;8.152;2022-10-17T03:59:11;1006.7;;;18.18;64.98
54459;BME280;40368;49.350;8.152;2022-10-17T04:00:10;1006.8;;;18.16;64.81
54459;BME280;40368;49.350;8.152;2022-10-17T04:01:11;1006.7;;;18.16;64.89
54459;BME280;40368;49.350;8.152;2022-10-17T04:02:10;1006.7;;;18.15;64.79
54459;BME280;40368;49.350;8.152;2022-10-17T04:03:10;1006.7;;;18.15;64.89
54459;BME280;40368;49.350;8.152;2022-10-17T04:04:10;1006.7;;;18.14;64.91
54459;BME280;40368;49.350;8.152;2022-10-17T04:05:10;1006.7;;;18.14;64.77
54459;BME280;40368;49.350;8.152;2022-10-17T04:06:11;1006.7;;;18.12;64.97
54459;BME280;40368;49.350;8.152;2022-10-17T04:07:10;1006.7;;;18.09;64.67
54459;BME280;40368;49.350;8.152;2022-10-17T04:08:11;1006.7;;;18.06;64.9
54459;BME280;40368;49.350;8.152;2022-10-17T04:09:10;1006.7;;;18.04;65.16
54459;BME280;40368;49.350;8.152;2022-10-17T04:10:10;1006.8;;;18.07;65.13
54459;BME280;40368;49.350;8.152;2022-10-17T04:11:12;1006.8;;;18.07;65.09
54459;BME280;40368;49.350;8.152;2022-10-17T04:12:10;1006.8;;;18.04;65.12
54459;BME280;40368;49.350;8.152;2022-10-17T04:13:10;1006.7;;;18.04;65.21
54459;BME280;40368;49.350;8.152;2022-10-17T04:14:10;1006.7;;;18.07;65.09
54459;BME280;40368;49.350;8.152;2022-10-17T04:15:10;1006.8;;;18.06;64.89
54459;BME280;40368;49.350;8.152;2022-10-17T04:16:11;1006.8;;;18.06;64.99
54459;BME280;40368;49.350;8.152;2022-10-17T04:17:10;1006.7;;;18.04;65.14
54459;BME280;40368;49.350;8.152;2022-10-17T04:18:10;1006.8;;;18.04;64.87
54459;BME280;40368;49.350;8.152;2022-10-17T04:19:10;1006.7;;;18.03;64.99
54459;BME280;40368;49.350;8.152;2022-10-17T04:20:10;1006.7;;;18;65.04
54459;BME280;40368;49.350;8.152;2022-10-17T04:21:10;1006.8;;;18;65.02
54459;BME280;40368;49.350;8.152;2022-10-17T04:22:11;1006.8;;;17.99;65.24
54459;BME280;40368;49.350;8.152;2022-10-17T04:23:10;1006.7;;;17.98;65.21
54459;BME280;40368;49.350;8.152;2022-10-17T04:24:10;1006.8;;;17.98;65.23
54459;BME280;40368;49.350;8.152;2022-10-17T04:25:10;1006.8;;;17.95;65.31
54459;BME280;40368;49.350;8.152;2022-10-17T04:26:10;1006.8;;;17.95;64.86
54459;BME280;40368;49.350;8.152;2022-10-17T04:27:10;1006.8;;;17.95;64.94
54459;BME280;40368;49.350;8.152;2022-10-17T04:28:10;1006.9;;;17.95;65.35
54459;BME280;40368;49.350;8.152;2022-10-17T04:29:10;1006.9;;;17.95;65.26
54459;BME280;40368;49.350;8.152;2022-10-17T04:30:10;1006.8;;;17.98;65.39
54459;BME280;40368;49.350;8.152;2022-10-17T04:31:11;1006.8;;;17.99;65.05
54459;BME280;40368;49.350;8.152;2022-10-17T04:32:10;1006.9;;;17.98;65.29
54459;BME280;40368;49.350;8.152;2022-10-17T04:33:10;1006.9;;;17.98;65.36
54459;BME280;40368;49.350;8.152;2022-10-17T04:34:10;1006.9;;;17.99;65.27
54459;BME280;40368;49.350;8.152;2022-10-17T04:35:10;1006.9;;;17.98;65.3
54459;BME280;40368;49.350;8.152;2022-10-17T04:36:11;1006.9;;;18;65.17
54459;BME280;40368;49.350;8.152;2022-10-17T04:37:10;1006.9;;;17.99;65.37
54459;BME280;40368;49.350;8.152;2022-10-17T04:38:10;1006.9;;;17.99;65.34
54459;BME280;40368;49.350;8.152;2022-10-17T04:39:10;1007;;;18.01;65.36
54459;BME280;40368;49.350;8.152;2022-10-17T04:40:10;1007;;;18.02;65.14
54459;BME280;40368;49.350;8.152;2022-10-17T04:41:11;1006.9;;;18.02;65.17
54459;BME280;40368;49.350;8.152;2022-10-17T04:42:10;1007;;;18.03;65.26
54459;BME280;40368;49.350;8.152;2022-10-17T04:43:10;1007.1;;;18.04;65.25
54459;BME280;40368;49.350;8.152;2022-10-17T04:44:10;1007;;;18.06;65.19
54459;BME280;40368;49.350;8.152;2022-10-17T04:45:10;1007.1;;;18.06;65.04
54459;BME280;40368;49.350;8.152;2022-10-17T04:46:11;1007;;;18.06;65.05
54459;BME280;40368;49.350;8.152;2022-10-17T04:47:10;1007;;;18.08;65.08
54459;BME280;40368;49.350;8.152;2022-10-17T04:48:10;1007;;;18.08;64.91
54459;BME280;40368;49.350;8.152;2022-10-17T04:49:10;1006.9;;;18.04;65.46
54459;BME280;40368;49.350;8.152;2022-10-17T04:50:10;1007;;;18.06;65.45
54459;BME280;40368;49.350;8.152;2022-10-17T04:51:11;1007;;;18.06;65.56
54459;BME280;40368;49.350;8.152;2022-10-17T04:52:10;1007;;;18.07;65.75
54459;BME280;40368;49.350;8.152;2022-10-17T04:53:10;1007;;;18.09;65.86
54459;BME280;40368;49.350;8.152;2022-10-17T04:54:10;1007;;;18.1;66.07
54459;BME280;40368;49.350;8.152;2022-10-17T04:55:10;1007;;;18.1;66
54459;BME280;40368;49.350;8.152;2022-10-17T04:56:11;1006.9;;;18.11;65.95
54459;BME280;40368;49.350;8.152;2022-10-17T04:57:10;1006.9;;;18.12;66.02
54459;BME280;40368;49.350;8.152;2022-10-17T04:58:10;1006.9;;;18.12;66.18
54459;BME280;40368;49.350;8.152;2022-10-17T04:59:10;1007;;;18.14;66.13
54459;BME280;40368;49.350;8.152;2022-10-17T05:00:10;1007;;;18.14;66.07
54459;BME280;40368;49.350;8.152;2022-10-17T05:01:11;1007;;;18.12;66.07
54459;BME280;40368;49.350;8.152;2022-10-17T05:02:10;1007;;;18.12;65.89
54459;BME280;40368;49.350;8.152;2022-10-17T05:03:10;1007;;;18.12;65.72
54459;BME280;40368;49.350;8.152;2022-10-17T05:04:10;1007;;;18.1;65.52
54459;BME280;40368;49.350;8.152;2022-10-17T05:05:10;1006.9;;;18.09;65.57
54459;BME280;40368;49.350;8.152;2022-10-17T05:06:11;1007;;;18.09;65.31
54459;BME280;40368;49.350;8.152;2022-10-17T05:07:10;1007;;;18.09;65.48
54459;BME280;40368;49.350;8.152;2022-10-17T05:08:10;1007.1;;;18.07;65.05
54459;BME280;40368;49.350;8.152;2022-10-17T05:09:10;1007;;;18.06;65.19
54459;BME280;40368;49.350;8.152;2022-10-17T05:10:10;1007;;;18.06;65.24
54459;BME280;40368;49.350;8.152;2022-10-17T05:11:14;1007.1;;;18.06;64.94
54459;BME280;40368;49.350;8.152;2022-10-17T05:12:10;1007.1;;;18.06;64.99
54459;BME280;40368;49.350;8.152;2022-10-17T05:13:10;1007.1;;;18.03;64.9
54459;BME280;40368;49.350;8.152;2022-10-17T05:14:10;1007;;;18.02;65.12
54459;BME280;40368;49.350;8.152;2022-10-17T05:15:10;1007.1;;;17.99;64.98
54459;BME280;40368;49.350;8.152;2022-10-17T05:16:10;1007;;;17.98;65.04
54459;BME280;40368;49.350;8.152;2022-10-17T05:17:10;1007;;;17.99;64.86
54459;BME280;40368;49.350;8.152;2022-10-17T05:18:10;1007;;;17.98;64.63
54459;BME280;40368;49.350;8.152;2022-10-17T05:19:10;1007;;;17.95;64.99
54459;BME280;40368;49.350;8.152;2022-10-17T05:20:10;1007;;;17.96;65.03
54459;BME280;40368;49.350;8.152;2022-10-17T05:21:10;1007.1;;;17.99;64.84
54459;BME280;40368;49.350;8.152;2022-10-17T05:22:10;1007.1;;;17.99;64.73
54459;BME280;40368;49.350;8.152;2022-10-17T05:23:10;1007.1;;;18;64.68
54459;BME280;40368;49.350;8.152;2022-10-17T05:24:12;1007.1;;;17.98;64.73
54459;BME280;40368;49.350;8.152;2022-10-17T05:25:10;1007.1;;;17.98;64.66
54459;BME280;40368;49.350;8.152;2022-10-17T05:26:10;1007.1;;;17.98;64.74
54459;BME280;40368;49.350;8.152;2022-10-17T05:27:10;1007;;;17.99;64.7
54459;BME280;40368;49.350;8.152;2022-10-17T05:28:10;1007.2;;;17.99;64.72
54459;BME280;40368;49.350;8.152;2022-10-17T05:29:10;1007.1;;;17.98;64.85
54459;BME280;40368;49.350;8.152;2022-10-17T05:30:10;1007.1;;;17.96;64.77
54459;BME280;40368;49.350;8.152;2022-10-17T05:31:10;1007.2;;;17.96;64.73